sensor_id;sensor_type;location;lat;lon;timestamp;P1;durP1;ratioP1;P2;durP2;ratioP2
990;SDS011;484;48.128;11.602;2023-09-30T00:02:10;13.67;;;6.37;;
990;SDS011;484;48.128;11.602;2023-09-30T00:04:56;11.00;;;6.13;;
990;SDS011;484;48.128;11.602;2023-09-30T00:07:42;12.07;;;7.23;;
990;SDS011;484;48.128;11.602;2023-09-30T00:10:31;13.30;;;7.90;;
990;SDS011;484;48.128;11.602;2023-09-30T00:13:17;14.27;;;6.77;;
990;SDS011;484;48.128;11.602;2023-09-30T00:16:04;13.43;;;6.13;;
990;SDS011;484;48.128;11.602;2023-09-30T00:18:50;14.47;;;5.73;;
990;SDS011;484;48.128;11.602;2023-09-30T00:21:37;14.00;;;7.63;;
990;SDS011;484;48.128;11.602;2023-09-30T00:24:23;14.80;;;7.23;;
990;SDS011;484;48.128;11.602;2023-09-30T00:42:05;13.33;;;7.03;;
990;SDS011;484;48.128;11.602;2023-09-30T00:45:46;13.00;;;7.13;;
990;SDS011;484;48.128;11.602;2023-09-30T01:09:29;17.63;;;7.73;;
990;SDS011;484;48.128;11.602;2023-09-30T01:12:49;17.83;;;8.00;;
990;SDS011;484;48.128;11.602;2023-09-30T01:20:28;15.90;;;7.67;;
990;SDS011;484;48.128;11.602;2023-09-30T01:32:38;17.00;;;7.47;;
990;SDS011;484;48.128;11.602;2023-09-30T01:36:02;14.10;;;7.17;;
990;SDS011;484;48.128;11.602;2023-09-30T01:39:43;19.50;;;9.47;;
990;SDS011;484;48.128;11.602;2023-09-30T01:54:28;15.03;;;6.80;;
990;SDS011;484;48.128;11.602;2023-09-30T02:52:53;14.70;;;8.00;;
990;SDS011;484;48.128;11.602;2023-09-30T03:14:43;13.30;;;7.33;;
990;SDS011;484;48.128;11.602;2023-09-30T03:33:16;14.60;;;8.23;;
990;SDS011;484;48.128;11.602;2023-09-30T04:10:49;12.23;;;7.60;;
990;SDS011;484;48.128;11.602;2023-09-30T04:14:14;10.03;;;6.73;;
990;SDS011;484;48.128;11.602;2023-09-30T04:17:02;14.00;;;7.20;;
990;SDS011;484;48.128;11.602;2023-09-30T04:19:49;12.00;;;6.90;;
990;SDS011;484;48.128;11.602;2023-09-30T04:22:35;14.10;;;5.93;;
990;SDS011;484;48.128;11.602;2023-09-30T04:25:21;9.40;;;6.57;;
990;SDS011;484;48.128;11.602;2023-09-30T04:28:08;12.80;;;5.80;;
990;SDS011;484;48.128;11.602;2023-09-30T04:30:53;15.30;;;7.93;;
990;SDS011;484;48.128;11.602;2023-09-30T04:33:39;18.73;;;8.43;;
990;SDS011;484;48.128;11.602;2023-09-30T04:36:26;13.60;;;6.83;;
990;SDS011;484;48.128;11.602;2023-09-30T04:39:12;12.97;;;7.80;;
990;SDS011;484;48.128;11.602;2023-09-30T04:41:58;14.10;;;7.80;;
990;SDS011;484;48.128;11.602;2023-09-30T04:44:45;11.23;;;6.73;;
990;SDS011;484;48.128;11.602;2023-09-30T04:47:31;12.67;;;6.97;;
990;SDS011;484;48.128;11.602;2023-09-30T04:50:16;14.10;;;7.37;;
990;SDS011;484;48.128;11.602;2023-09-30T04:53:05;12.50;;;6.20;;
990;SDS011;484;48.128;11.602;2023-09-30T04:55:51;11.33;;;7.47;;
990;SDS011;484;48.128;11.602;2023-09-30T04:58:37;11.93;;;6.70;;
990;SDS011;484;48.128;11.602;2023-09-30T05:01:22;12.90;;;6.93;;
990;SDS011;484;48.128;11.602;2023-09-30T05:04:08;10.90;;;6.97;;
990;SDS011;484;48.128;11.602;2023-09-30T05:06:53;12.70;;;6.90;;
990;SDS011;484;48.128;11.602;2023-09-30T05:09:40;8.20;;;5.63;;
990;SDS011;484;48.128;11.602;2023-09-30T05:12:26;15.07;;;6.17;;
990;SDS011;484;48.128;11.602;2023-09-30T05:15:11;16.03;;;6.83;;
990;SDS011;484;48.128;11.602;2023-09-30T05:17:59;18.27;;;8.00;;
990;SDS011;484;48.128;11.602;2023-09-30T05:20:44;13.70;;;6.27;;
990;SDS011;484;48.128;11.602;2023-09-30T05:23:30;12.80;;;6.67;;
990;SDS011;484;48.128;11.602;2023-09-30T05:26:17;16.13;;;6.70;;
990;SDS011;484;48.128;11.602;2023-09-30T05:29:02;13.57;;;7.30;;
990;SDS011;484;48.128;11.602;2023-09-30T05:31:49;12.30;;;6.60;;
990;SDS011;484;48.128;11.602;2023-09-30T05:34:34;11.30;;;6.40;;
990;SDS011;484;48.128;11.602;2023-09-30T05:37:19;11.00;;;6.87;;
990;SDS011;484;48.128;11.602;2023-09-30T05:40:06;17.20;;;6.60;;
990;SDS011;484;48.128;11.602;2023-09-30T05:43:02;15.37;;;8.10;;
990;SDS011;484;48.128;11.602;2023-09-30T05:45:49;12.60;;;5.43;;
990;SDS011;484;48.128;11.602;2023-09-30T05:48:38;14.50;;;6.80;;
990;SDS011;484;48.128;11.602;2023-09-30T05:51:23;14.63;;;7.20;;
990;SDS011;484;48.128;11.602;2023-09-30T05:54:09;11.43;;;7.43;;
990;SDS011;484;48.128;11.602;2023-09-30T05:56:55;10.37;;;5.43;;
990;SDS011;484;48.128;11.602;2023-09-30T05:59:42;12.30;;;6.47;;
990;SDS011;484;48.128;11.602;2023-09-30T06:02:29;12.60;;;5.47;;
990;SDS011;484;48.128;11.602;2023-09-30T06:05:15;11.37;;;5.27;;
990;SDS011;484;48.128;11.602;2023-09-30T06:08:03;16.83;;;6.60;;
990;SDS011;484;48.128;11.602;2023-09-30T06:10:52;11.67;;;5.97;;
990;SDS011;484;48.128;11.602;2023-09-30T06:13:38;15.13;;;6.40;;
990;SDS011;484;48.128;11.602;2023-09-30T06:16:25;10.97;;;6.60;;
990;SDS011;484;48.128;11.602;2023-09-30T06:19:10;13.83;;;5.80;;
990;SDS011;484;48.128;11.602;2023-09-30T06:21:56;10.97;;;6.07;;
990;SDS011;484;48.128;11.602;2023-09-30T06:24:41;13.00;;;5.83;;
990;SDS011;484;48.128;11.602;2023-09-30T06:27:26;10.87;;;5.90;;
990;SDS011;484;48.128;11.602;2023-09-30T06:30:12;12.20;;;6.47;;
990;SDS011;484;48.128;11.602;2023-09-30T06:33:01;14.33;;;6.70;;
990;SDS011;484;48.128;11.602;2023-09-30T06:35:48;9.03;;;4.27;;
990;SDS011;484;48.128;11.602;2023-09-30T06:38:35;8.80;;;5.37;;
990;SDS011;484;48.128;11.602;2023-09-30T06:41:21;11.73;;;7.70;;
990;SDS011;484;48.128;11.602;2023-09-30T06:44:06;11.70;;;4.63;;
990;SDS011;484;48.128;11.602;2023-09-30T06:46:52;14.60;;;5.40;;
990;SDS011;484;48.128;11.602;2023-09-30T06:49:40;7.50;;;4.67;;
990;SDS011;484;48.128;11.602;2023-09-30T06:52:25;11.47;;;5.10;;
990;SDS011;484;48.128;11.602;2023-09-30T06:55:11;6.83;;;4.47;;
990;SDS011;484;48.128;11.602;2023-09-30T06:58:00;6.53;;;4.73;;
990;SDS011;484;48.128;11.602;2023-09-30T07:00:45;6.30;;;2.70;;
990;SDS011;484;48.128;11.602;2023-09-30T07:03:37;4.43;;;3.40;;
990;SDS011;484;48.128;11.602;2023-09-30T07:06:29;5.80;;;3.43;;
990;SDS011;484;48.128;11.602;2023-09-30T07:09:34;6.20;;;3.60;;
990;SDS011;484;48.128;11.602;2023-09-30T07:12:40;6.07;;;3.90;;
990;SDS011;484;48.128;11.602;2023-09-30T07:15:34;10.00;;;4.23;;
990;SDS011;484;48.128;11.602;2023-09-30T07:18:24;4.30;;;3.23;;
990;SDS011;484;48.128;11.602;2023-09-30T07:21:12;6.90;;;4.23;;
990;SDS011;484;48.128;11.602;2023-09-30T07:24:04;4.90;;;3.00;;
990;SDS011;484;48.128;11.602;2023-09-30T07:27:01;3.67;;;2.97;;
990;SDS011;484;48.128;11.602;2023-09-30T07:29:56;16.20;;;9.80;;
990;SDS011;484;48.128;11.602;2023-09-30T07:33:12;6.17;;;3.20;;
990;SDS011;484;48.128;11.602;2023-09-30T07:36:06;4.70;;;4.03;;
990;SDS011;484;48.128;11.602;2023-09-30T07:39:00;7.77;;;3.57;;
990;SDS011;484;48.128;11.602;2023-09-30T07:42:08;6.80;;;4.73;;
990;SDS011;484;48.128;11.602;2023-09-30T07:44:59;6.93;;;4.60;;
990;SDS011;484;48.128;11.602;2023-09-30T07:47:52;6.90;;;4.77;;
990;SDS011;484;48.128;11.602;2023-09-30T07:50:41;6.47;;;4.10;;
990;SDS011;484;48.128;11.602;2023-09-30T07:53:38;9.93;;;4.47;;
990;SDS011;484;48.128;11.602;2023-09-30T08:07:16;6.93;;;4.03;;
990;SDS011;484;48.128;11.602;2023-09-30T08:11:02;5.37;;;3.63;;
990;SDS011;484;48.128;11.602;2023-09-30T08:14:19;8.57;;;4.13;;
990;SDS011;484;48.128;11.602;2023-09-30T08:17:50;8.63;;;4.43;;
990;SDS011;484;48.128;11.602;2023-09-30T08:21:09;9.33;;;4.70;;
990;SDS011;484;48.128;11.602;2023-09-30T08:24:05;7.10;;;4.37;;
990;SDS011;484;48.128;11.602;2023-09-30T08:27:03;7.10;;;4.67;;
990;SDS011;484;48.128;11.602;2023-09-30T08:30:04;8.40;;;4.47;;
990;SDS011;484;48.128;11.602;2023-09-30T08:33:05;8.27;;;4.87;;
990;SDS011;484;48.128;11.602;2023-09-30T08:36:08;13.10;;;4.63;;
990;SDS011;484;48.128;11.602;2023-09-30T08:39:03;4.73;;;3.73;;
990;SDS011;484;48.128;11.602;2023-09-30T08:42:09;7.37;;;5.37;;
990;SDS011;484;48.128;11.602;2023-09-30T08:45:58;10.00;;;5.17;;
990;SDS011;484;48.128;11.602;2023-09-30T08:48:47;7.63;;;4.80;;
990;SDS011;484;48.128;11.602;2023-09-30T08:51:37;5.73;;;3.30;;
990;SDS011;484;48.128;11.602;2023-09-30T08:54:23;5.90;;;4.33;;
990;SDS011;484;48.128;11.602;2023-09-30T08:57:14;12.37;;;5.77;;
990;SDS011;484;48.128;11.602;2023-09-30T09:00:04;7.40;;;4.40;;
990;SDS011;484;48.128;11.602;2023-09-30T09:03:10;8.83;;;4.50;;
990;SDS011;484;48.128;11.602;2023-09-30T09:10:11;6.47;;;4.17;;
990;SDS011;484;48.128;11.602;2023-09-30T09:13:17;5.90;;;4.50;;
990;SDS011;484;48.128;11.602;2023-09-30T09:24:04;6.20;;;4.07;;
990;SDS011;484;48.128;11.602;2023-09-30T09:27:07;8.43;;;4.90;;
990;SDS011;484;48.128;11.602;2023-09-30T09:30:16;9.47;;;5.77;;
990;SDS011;484;48.128;11.602;2023-09-30T09:33:03;9.07;;;5.87;;
990;SDS011;484;48.128;11.602;2023-09-30T09:35:50;8.23;;;5.47;;
990;SDS011;484;48.128;11.602;2023-09-30T09:38:43;7.73;;;5.50;;
990;SDS011;484;48.128;11.602;2023-09-30T09:41:33;11.17;;;5.53;;
990;SDS011;484;48.128;11.602;2023-09-30T09:44:37;7.47;;;5.50;;
990;SDS011;484;48.128;11.602;2023-09-30T09:47:31;7.43;;;4.70;;
990;SDS011;484;48.128;11.602;2023-09-30T09:50:40;6.13;;;4.53;;
990;SDS011;484;48.128;11.602;2023-09-30T09:53:34;7.63;;;4.77;;
990;SDS011;484;48.128;11.602;2023-09-30T09:56:34;6.37;;;4.30;;
990;SDS011;484;48.128;11.602;2023-09-30T09:59:37;6.70;;;4.30;;
990;SDS011;484;48.128;11.602;2023-09-30T10:03:02;10.23;;;5.37;;
990;SDS011;484;48.128;11.602;2023-09-30T10:05:48;10.50;;;6.53;;
990;SDS011;484;48.128;11.602;2023-09-30T10:08:54;8.40;;;4.43;;
990;SDS011;484;48.128;11.602;2023-09-30T10:11:45;7.90;;;5.33;;
990;SDS011;484;48.128;11.602;2023-09-30T10:14:34;6.07;;;4.40;;
990;SDS011;484;48.128;11.602;2023-09-30T10:17:37;6.93;;;4.80;;
990;SDS011;484;48.128;11.602;2023-09-30T10:21:06;3.90;;;2.90;;
990;SDS011;484;48.128;11.602;2023-09-30T10:23:54;6.37;;;3.77;;
990;SDS011;484;48.128;11.602;2023-09-30T10:27:51;9.80;;;4.93;;
990;SDS011;484;48.128;11.602;2023-09-30T10:35:04;5.73;;;3.50;;
990;SDS011;484;48.128;11.602;2023-09-30T10:37:52;7.53;;;4.43;;
990;SDS011;484;48.128;11.602;2023-09-30T10:41:48;4.90;;;3.73;;
990;SDS011;484;48.128;11.602;2023-09-30T10:44:40;6.40;;;4.57;;
990;SDS011;484;48.128;11.602;2023-09-30T10:47:37;6.77;;;4.00;;
990;SDS011;484;48.128;11.602;2023-09-30T10:50:53;6.77;;;4.80;;
990;SDS011;484;48.128;11.602;2023-09-30T10:53:53;7.33;;;5.00;;
990;SDS011;484;48.128;11.602;2023-09-30T10:56:44;5.03;;;3.83;;
990;SDS011;484;48.128;11.602;2023-09-30T10:59:31;5.37;;;4.20;;
990;SDS011;484;48.128;11.602;2023-09-30T11:02:21;6.93;;;4.07;;
990;SDS011;484;48.128;11.602;2023-09-30T11:05:23;4.90;;;3.97;;
990;SDS011;484;48.128;11.602;2023-09-30T11:08:09;6.33;;;4.40;;
990;SDS011;484;48.128;11.602;2023-09-30T11:11:18;6.53;;;4.33;;
990;SDS011;484;48.128;11.602;2023-09-30T11:14:03;8.03;;;4.70;;
990;SDS011;484;48.128;11.602;2023-09-30T11:17:03;6.47;;;3.97;;
990;SDS011;484;48.128;11.602;2023-09-30T11:20:04;5.23;;;4.10;;
990;SDS011;484;48.128;11.602;2023-09-30T11:22:53;5.47;;;3.10;;
990;SDS011;484;48.128;11.602;2023-09-30T11:26:32;4.90;;;3.60;;
990;SDS011;484;48.128;11.602;2023-09-30T11:29:16;4.13;;;3.03;;
990;SDS011;484;48.128;11.602;2023-09-30T11:32:02;4.47;;;3.30;;
990;SDS011;484;48.128;11.602;2023-09-30T11:34:48;4.43;;;3.60;;
990;SDS011;484;48.128;11.602;2023-09-30T11:37:35;6.70;;;4.60;;
990;SDS011;484;48.128;11.602;2023-09-30T11:40:31;6.97;;;4.60;;
990;SDS011;484;48.128;11.602;2023-09-30T11:43:19;7.53;;;4.77;;
990;SDS011;484;48.128;11.602;2023-09-30T11:46:06;7.83;;;4.97;;
990;SDS011;484;48.128;11.602;2023-09-30T11:49:23;7.43;;;5.40;;
990;SDS011;484;48.128;11.602;2023-09-30T11:52:10;8.37;;;5.17;;
990;SDS011;484;48.128;11.602;2023-09-30T11:55:00;10.90;;;6.43;;
990;SDS011;484;48.128;11.602;2023-09-30T11:58:03;13.07;;;6.10;;
990;SDS011;484;48.128;11.602;2023-09-30T12:01:17;7.20;;;4.50;;
990;SDS011;484;48.128;11.602;2023-09-30T12:04:03;7.20;;;5.10;;
990;SDS011;484;48.128;11.602;2023-09-30T12:07:04;8.90;;;5.50;;
990;SDS011;484;48.128;11.602;2023-09-30T12:10:28;9.57;;;5.87;;
990;SDS011;484;48.128;11.602;2023-09-30T12:13:18;8.13;;;5.37;;
990;SDS011;484;48.128;11.602;2023-09-30T12:16:05;9.43;;;4.90;;
990;SDS011;484;48.128;11.602;2023-09-30T12:19:05;7.23;;;4.23;;
990;SDS011;484;48.128;11.602;2023-09-30T12:21:54;10.57;;;6.80;;
990;SDS011;484;48.128;11.602;2023-09-30T12:25:31;9.27;;;5.47;;
990;SDS011;484;48.128;11.602;2023-09-30T12:28:08;7.13;;;5.40;;
990;SDS011;484;48.128;11.602;2023-09-30T12:31:05;11.60;;;6.10;;
990;SDS011;484;48.128;11.602;2023-09-30T12:37:20;5.53;;;4.60;;
990;SDS011;484;48.128;11.602;2023-09-30T12:40:08;6.57;;;4.60;;
990;SDS011;484;48.128;11.602;2023-09-30T12:43:14;7.90;;;5.00;;
990;SDS011;484;48.128;11.602;2023-09-30T12:46:04;7.40;;;4.87;;
990;SDS011;484;48.128;11.602;2023-09-30T12:48:50;9.60;;;6.23;;
990;SDS011;484;48.128;11.602;2023-09-30T12:52:09;7.33;;;4.63;;
990;SDS011;484;48.128;11.602;2023-09-30T12:55:00;7.50;;;4.93;;
990;SDS011;484;48.128;11.602;2023-09-30T12:57:50;10.90;;;5.37;;
990;SDS011;484;48.128;11.602;2023-09-30T13:01:29;8.77;;;5.43;;
990;SDS011;484;48.128;11.602;2023-09-30T13:04:04;10.23;;;6.87;;
990;SDS011;484;48.128;11.602;2023-09-30T13:07:10;7.03;;;5.30;;
990;SDS011;484;48.128;11.602;2023-09-30T13:10:01;9.70;;;6.13;;
990;SDS011;484;48.128;11.602;2023-09-30T13:12:55;9.23;;;5.50;;
990;SDS011;484;48.128;11.602;2023-09-30T13:15:46;12.77;;;5.70;;
990;SDS011;484;48.128;11.602;2023-09-30T13:18:32;9.57;;;5.77;;
990;SDS011;484;48.128;11.602;2023-09-30T13:21:17;7.90;;;5.37;;
990;SDS011;484;48.128;11.602;2023-09-30T13:24:08;10.33;;;5.20;;
990;SDS011;484;48.128;11.602;2023-09-30T13:30:05;8.20;;;5.40;;
990;SDS011;484;48.128;11.602;2023-09-30T13:33:12;6.90;;;5.13;;
990;SDS011;484;48.128;11.602;2023-09-30T13:36:01;9.97;;;4.80;;
990;SDS011;484;48.128;11.602;2023-09-30T13:38:58;7.83;;;4.93;;
990;SDS011;484;48.128;11.602;2023-09-30T13:41:50;9.10;;;5.83;;
990;SDS011;484;48.128;11.602;2023-09-30T13:44:38;8.20;;;5.13;;
990;SDS011;484;48.128;11.602;2023-09-30T13:47:24;6.90;;;4.73;;
990;SDS011;484;48.128;11.602;2023-09-30T13:50:09;11.80;;;5.70;;
990;SDS011;484;48.128;11.602;2023-09-30T13:53:02;9.30;;;5.50;;
990;SDS011;484;48.128;11.602;2023-09-30T13:56:08;8.90;;;4.63;;
990;SDS011;484;48.128;11.602;2023-09-30T13:58:57;7.30;;;4.43;;
990;SDS011;484;48.128;11.602;2023-09-30T14:02:05;8.17;;;4.73;;
990;SDS011;484;48.128;11.602;2023-09-30T14:05:03;9.73;;;5.07;;
990;SDS011;484;48.128;11.602;2023-09-30T14:08:07;7.30;;;4.57;;
990;SDS011;484;48.128;11.602;2023-09-30T14:11:08;7.60;;;5.10;;
990;SDS011;484;48.128;11.602;2023-09-30T14:13:58;9.90;;;5.50;;
990;SDS011;484;48.128;11.602;2023-09-30T14:17:05;8.40;;;6.00;;
990;SDS011;484;48.128;11.602;2023-09-30T14:20:12;12.60;;;5.07;;
990;SDS011;484;48.128;11.602;2023-09-30T14:23:00;8.40;;;5.33;;
990;SDS011;484;48.128;11.602;2023-09-30T14:25:46;7.63;;;4.60;;
990;SDS011;484;48.128;11.602;2023-09-30T14:28:34;8.10;;;4.60;;
990;SDS011;484;48.128;11.602;2023-09-30T14:31:23;9.87;;;5.67;;
990;SDS011;484;48.128;11.602;2023-09-30T14:37:54;5.67;;;4.00;;
990;SDS011;484;48.128;11.602;2023-09-30T14:40:54;6.87;;;5.03;;
990;SDS011;484;48.128;11.602;2023-09-30T14:46:56;6.33;;;4.50;;
990;SDS011;484;48.128;11.602;2023-09-30T14:49:51;10.27;;;5.60;;
990;SDS011;484;48.128;11.602;2023-09-30T14:53:05;11.07;;;6.00;;
990;SDS011;484;48.128;11.602;2023-09-30T14:59:08;11.67;;;5.80;;
990;SDS011;484;48.128;11.602;2023-09-30T15:01:57;7.53;;;5.13;;
990;SDS011;484;48.128;11.602;2023-09-30T15:05:06;7.00;;;4.53;;
990;SDS011;484;48.128;11.602;2023-09-30T15:07:52;10.07;;;5.97;;
990;SDS011;484;48.128;11.602;2023-09-30T15:10:42;7.83;;;3.77;;
990;SDS011;484;48.128;11.602;2023-09-30T15:13:28;7.20;;;5.20;;
990;SDS011;484;48.128;11.602;2023-09-30T15:16:17;10.73;;;5.07;;
990;SDS011;484;48.128;11.602;2023-09-30T15:19:05;9.77;;;4.93;;
990;SDS011;484;48.128;11.602;2023-09-30T15:21:50;8.43;;;5.23;;
990;SDS011;484;48.128;11.602;2023-09-30T15:24:39;12.50;;;5.30;;
990;SDS011;484;48.128;11.602;2023-09-30T15:27:29;8.13;;;4.50;;
990;SDS011;484;48.128;11.602;2023-09-30T15:30:16;12.00;;;5.50;;
990;SDS011;484;48.128;11.602;2023-09-30T15:33:02;7.30;;;5.20;;
990;SDS011;484;48.128;11.602;2023-09-30T15:35:55;11.10;;;5.67;;
990;SDS011;484;48.128;11.602;2023-09-30T15:38:40;10.13;;;4.77;;
990;SDS011;484;48.128;11.602;2023-09-30T15:41:31;13.40;;;5.80;;
990;SDS011;484;48.128;11.602;2023-09-30T15:44:18;8.43;;;5.40;;
990;SDS011;484;48.128;11.602;2023-09-30T15:47:04;9.80;;;5.17;;
990;SDS011;484;48.128;11.602;2023-09-30T15:49:56;8.13;;;4.67;;
990;SDS011;484;48.128;11.602;2023-09-30T15:52:43;7.47;;;5.00;;
990;SDS011;484;48.128;11.602;2023-09-30T15:55:51;7.00;;;5.10;;
990;SDS011;484;48.128;11.602;2023-09-30T15:58:43;8.40;;;4.93;;
990;SDS011;484;48.128;11.602;2023-09-30T16:01:38;9.30;;;5.77;;
990;SDS011;484;48.128;11.602;2023-09-30T16:04:28;8.33;;;5.70;;
990;SDS011;484;48.128;11.602;2023-09-30T16:07:17;8.93;;;6.27;;
990;SDS011;484;48.128;11.602;2023-09-30T16:10:05;8.50;;;5.73;;
990;SDS011;484;48.128;11.602;2023-09-30T16:12:56;9.60;;;5.37;;
990;SDS011;484;48.128;11.602;2023-09-30T16:15:42;7.60;;;4.77;;
990;SDS011;484;48.128;11.602;2023-09-30T16:18:34;11.80;;;5.40;;
990;SDS011;484;48.128;11.602;2023-09-30T16:21:21;7.87;;;4.60;;
990;SDS011;484;48.128;11.602;2023-09-30T16:24:08;10.03;;;4.40;;
990;SDS011;484;48.128;11.602;2023-09-30T16:26:58;8.93;;;5.60;;
990;SDS011;484;48.128;11.602;2023-09-30T16:29:43;9.10;;;4.10;;
990;SDS011;484;48.128;11.602;2023-09-30T16:32:30;6.80;;;5.23;;
990;SDS011;484;48.128;11.602;2023-09-30T16:35:31;8.00;;;4.93;;
990;SDS011;484;48.128;11.602;2023-09-30T16:38:18;12.50;;;5.90;;
990;SDS011;484;48.128;11.602;2023-09-30T16:41:08;14.53;;;6.13;;
990;SDS011;484;48.128;11.602;2023-09-30T16:43:55;8.27;;;5.33;;
990;SDS011;484;48.128;11.602;2023-09-30T16:46:41;6.73;;;4.63;;
990;SDS011;484;48.128;11.602;2023-09-30T16:49:27;12.83;;;5.90;;
990;SDS011;484;48.128;11.602;2023-09-30T16:52:14;16.00;;;4.87;;
990;SDS011;484;48.128;11.602;2023-09-30T16:55:00;16.30;;;7.60;;
990;SDS011;484;48.128;11.602;2023-09-30T16:57:50;8.93;;;6.10;;
990;SDS011;484;48.128;11.602;2023-09-30T17:03:51;11.27;;;5.83;;
990;SDS011;484;48.128;11.602;2023-09-30T17:06:51;10.73;;;6.10;;
990;SDS011;484;48.128;11.602;2023-09-30T17:09:49;7.47;;;5.80;;
990;SDS011;484;48.128;11.602;2023-09-30T17:12:54;7.37;;;4.40;;
990;SDS011;484;48.128;11.602;2023-09-30T17:16:06;8.53;;;5.73;;
990;SDS011;484;48.128;11.602;2023-09-30T17:18:53;9.03;;;6.50;;
990;SDS011;484;48.128;11.602;2023-09-30T17:21:51;11.10;;;5.70;;
990;SDS011;484;48.128;11.602;2023-09-30T17:24:50;12.00;;;6.40;;
990;SDS011;484;48.128;11.602;2023-09-30T17:28:21;17.10;;;7.87;;
990;SDS011;484;48.128;11.602;2023-09-30T17:31:00;8.60;;;6.60;;
990;SDS011;484;48.128;11.602;2023-09-30T17:33:53;8.13;;;5.90;;
990;SDS011;484;48.128;11.602;2023-09-30T17:36:49;14.07;;;7.53;;
990;SDS011;484;48.128;11.602;2023-09-30T17:40:02;8.50;;;6.10;;
990;SDS011;484;48.128;11.602;2023-09-30T17:46:42;12.37;;;7.03;;
990;SDS011;484;48.128;11.602;2023-09-30T18:00:47;11.10;;;6.00;;
990;SDS011;484;48.128;11.602;2023-09-30T18:03:32;9.00;;;7.00;;
990;SDS011;484;48.128;11.602;2023-09-30T18:06:30;10.07;;;6.53;;
990;SDS011;484;48.128;11.602;2023-09-30T18:09:19;16.67;;;7.27;;
990;SDS011;484;48.128;11.602;2023-09-30T18:13:23;10.90;;;6.00;;
990;SDS011;484;48.128;11.602;2023-09-30T18:16:01;9.23;;;7.03;;
990;SDS011;484;48.128;11.602;2023-09-30T18:29:15;9.17;;;6.40;;
990;SDS011;484;48.128;11.602;2023-09-30T18:55:22;11.93;;;6.93;;
990;SDS011;484;48.128;11.602;2023-09-30T18:58:08;11.87;;;6.40;;
990;SDS011;484;48.128;11.602;2023-09-30T19:01:06;9.93;;;6.70;;
990;SDS011;484;48.128;11.602;2023-09-30T19:04:15;10.83;;;5.53;;
990;SDS011;484;48.128;11.602;2023-09-30T19:07:32;10.80;;;6.20;;
990;SDS011;484;48.128;11.602;2023-09-30T19:10:22;7.10;;;5.43;;
990;SDS011;484;48.128;11.602;2023-09-30T19:13:32;12.57;;;6.10;;
990;SDS011;484;48.128;11.602;2023-09-30T19:16:18;11.23;;;5.87;;
990;SDS011;484;48.128;11.602;2023-09-30T19:19:11;8.67;;;5.30;;
990;SDS011;484;48.128;11.602;2023-09-30T19:22:08;7.10;;;5.33;;
990;SDS011;484;48.128;11.602;2023-09-30T19:25:27;11.50;;;5.80;;
990;SDS011;484;48.128;11.602;2023-09-30T19:31:39;9.93;;;6.30;;
990;SDS011;484;48.128;11.602;2023-09-30T19:35:00;13.50;;;7.57;;
990;SDS011;484;48.128;11.602;2023-09-30T19:40:25;16.83;;;5.80;;
990;SDS011;484;48.128;11.602;2023-09-30T19:47:11;9.77;;;5.00;;
990;SDS011;484;48.128;11.602;2023-09-30T19:50:27;9.60;;;4.97;;
990;SDS011;484;48.128;11.602;2023-09-30T19:59:54;11.97;;;7.03;;
990;SDS011;484;48.128;11.602;2023-09-30T20:06:00;14.73;;;10.20;;
990;SDS011;484;48.128;11.602;2023-09-30T20:09:37;11.67;;;6.60;;
990;SDS011;484;48.128;11.602;2023-09-30T20:12:26;12.30;;;8.70;;
990;SDS011;484;48.128;11.602;2023-09-30T20:16:03;10.83;;;6.83;;
990;SDS011;484;48.128;11.602;2023-09-30T20:22:29;11.97;;;7.00;;
990;SDS011;484;48.128;11.602;2023-09-30T20:28:21;7.67;;;5.97;;
990;SDS011;484;48.128;11.602;2023-09-30T20:31:14;8.73;;;5.53;;
990;SDS011;484;48.128;11.602;2023-09-30T20:34:23;9.20;;;6.47;;
990;SDS011;484;48.128;11.602;2023-09-30T20:37:20;8.43;;;6.30;;
990;SDS011;484;48.128;11.602;2023-09-30T20:40:07;9.30;;;6.03;;
990;SDS011;484;48.128;11.602;2023-09-30T20:43:23;10.00;;;6.13;;
990;SDS011;484;48.128;11.602;2023-09-30T20:46:15;12.30;;;8.20;;
990;SDS011;484;48.128;11.602;2023-09-30T20:49:26;9.97;;;6.47;;
990;SDS011;484;48.128;11.602;2023-09-30T20:52:22;12.03;;;6.60;;
990;SDS011;484;48.128;11.602;2023-09-30T20:55:12;10.40;;;7.10;;
990;SDS011;484;48.128;11.602;2023-09-30T21:01:33;10.40;;;6.67;;
990;SDS011;484;48.128;11.602;2023-09-30T21:04:34;5.20;;;4.70;;
990;SDS011;484;48.128;11.602;2023-09-30T21:07:24;9.27;;;7.47;;
990;SDS011;484;48.128;11.602;2023-09-30T21:11:22;12.10;;;6.50;;
990;SDS011;484;48.128;11.602;2023-09-30T21:14:24;11.43;;;6.03;;
990;SDS011;484;48.128;11.602;2023-09-30T21:17:09;17.03;;;6.47;;
990;SDS011;484;48.128;11.602;2023-09-30T21:19:57;13.73;;;8.83;;
990;SDS011;484;48.128;11.602;2023-09-30T21:22:42;10.33;;;7.63;;
990;SDS011;484;48.128;11.602;2023-09-30T21:25:29;15.43;;;8.37;;
990;SDS011;484;48.128;11.602;2023-09-30T21:28:14;12.03;;;9.13;;
990;SDS011;484;48.128;11.602;2023-09-30T21:31:01;10.70;;;6.60;;
990;SDS011;484;48.128;11.602;2023-09-30T21:33:47;8.93;;;6.50;;
990;SDS011;484;48.128;11.602;2023-09-30T21:36:34;10.20;;;6.90;;
990;SDS011;484;48.128;11.602;2023-09-30T21:39:20;9.97;;;6.40;;
990;SDS011;484;48.128;11.602;2023-09-30T21:42:06;9.33;;;6.87;;
990;SDS011;484;48.128;11.602;2023-09-30T21:44:51;13.10;;;8.50;;
990;SDS011;484;48.128;11.602;2023-09-30T21:47:36;16.27;;;9.57;;
990;SDS011;484;48.128;11.602;2023-09-30T21:50:22;11.17;;;7.70;;
990;SDS011;484;48.128;11.602;2023-09-30T21:53:09;12.20;;;8.20;;
990;SDS011;484;48.128;11.602;2023-09-30T21:55:59;8.53;;;6.70;;
990;SDS011;484;48.128;11.602;2023-09-30T21:58:46;10.73;;;7.70;;
990;SDS011;484;48.128;11.602;2023-09-30T22:01:31;10.17;;;7.60;;
990;SDS011;484;48.128;11.602;2023-09-30T22:04:17;13.97;;;6.80;;
990;SDS011;484;48.128;11.602;2023-09-30T22:07:02;11.23;;;6.67;;
990;SDS011;484;48.128;11.602;2023-09-30T22:09:49;7.57;;;6.60;;
990;SDS011;484;48.128;11.602;2023-09-30T22:12:35;9.50;;;6.97;;
990;SDS011;484;48.128;11.602;2023-09-30T22:15:20;17.73;;;7.40;;
990;SDS011;484;48.128;11.602;2023-09-30T22:18:07;14.73;;;8.00;;
990;SDS011;484;48.128;11.602;2023-09-30T22:20:55;9.43;;;6.33;;
990;SDS011;484;48.128;11.602;2023-09-30T22:23:42;11.20;;;7.03;;
990;SDS011;484;48.128;11.602;2023-09-30T22:26:29;13.47;;;7.83;;
990;SDS011;484;48.128;11.602;2023-09-30T22:29:14;9.97;;;7.40;;
990;SDS011;484;48.128;11.602;2023-09-30T22:32:00;15.47;;;7.80;;
990;SDS011;484;48.128;11.602;2023-09-30T22:34:45;13.67;;;6.80;;
990;SDS011;484;48.128;11.602;2023-09-30T22:37:31;10.80;;;7.53;;
990;SDS011;484;48.128;11.602;2023-09-30T22:40:16;11.83;;;6.77;;
990;SDS011;484;48.128;11.602;2023-09-30T22:43:03;15.47;;;8.43;;
990;SDS011;484;48.128;11.602;2023-09-30T22:45:49;11.90;;;6.73;;
990;SDS011;484;48.128;11.602;2023-09-30T22:48:35;13.63;;;7.27;;
990;SDS011;484;48.128;11.602;2023-09-30T22:51:20;11.20;;;7.43;;
990;SDS011;484;48.128;11.602;2023-09-30T22:54:06;10.67;;;7.10;;
990;SDS011;484;48.128;11.602;2023-09-30T22:56:51;12.60;;;8.87;;
990;SDS011;484;48.128;11.602;2023-09-30T22:59:39;14.87;;;8.00;;
990;SDS011;484;48.128;11.602;2023-09-30T23:02:24;8.07;;;6.50;;
990;SDS011;484;48.128;11.602;2023-09-30T23:05:10;9.63;;;8.23;;
990;SDS011;484;48.128;11.602;2023-09-30T23:07:56;11.40;;;7.13;;
990;SDS011;484;48.128;11.602;2023-09-30T23:10:41;11.90;;;7.40;;
990;SDS011;484;48.128;11.602;2023-09-30T23:13:27;11.53;;;7.23;;
990;SDS011;484;48.128;11.602;2023-09-30T23:16:14;17.83;;;7.97;;
990;SDS011;484;48.128;11.602;2023-09-30T23:19:00;13.93;;;7.33;;
990;SDS011;484;48.128;11.602;2023-09-30T23:21:50;10.63;;;6.93;;
990;SDS011;484;48.128;11.602;2023-09-30T23:24:36;11.40;;;7.10;;